sensor_id;sensor_type;location;lat;lon;timestamp;P1;durP1;ratioP1;P2;durP2;ratioP2
13366;SDS011;6752;52.612;13.630;2022-07-12T00:00:19;5.05;;;1.65;;
13366;SDS011;6752;52.612;13.630;2022-07-12T00:05:21;3.50;;;1.20;;
13366;SDS011;6752;52.612;13.630;2022-07-12T00:10:24;3.20;;;1.33;;
13366;SDS011;6752;52.612;13.630;2022-07-12T00:15:26;3.47;;;1.40;;
13366;SDS011;6752;52.612;13.630;2022-07-12T00:20:29;4.22;;;1.35;;
13366;SDS011;6752;52.612;13.630;2022-07-12T00:25:31;3.65;;;1.37;;
13366;SDS011;6752;52.612;13.630;2022-07-12T00:30:33;4.23;;;1.30;;
13366;SDS011;6752;52.612;13.630;2022-07-12T00:35:38;3.78;;;1.30;;
13366;SDS011;6752;52.612;13.630;2022-07-12T00:40:40;4.87;;;1.40;;
13366;SDS011;6752;52.612;13.630;2022-07-12T00:45:43;3.47;;;1.30;;
13366;SDS011;6752;52.612;13.630;2022-07-12T00:55:47;3.00;;;1.42;;
13366;SDS011;6752;52.612;13.630;2022-07-12T01:00:49;4.30;;;1.50;;
13366;SDS011;6752;52.612;13.630;2022-07-12T01:05:52;2.83;;;1.27;;
13366;SDS011;6752;52.612;13.630;2022-07-12T01:10:54;2.65;;;1.33;;
13366;SDS011;6752;52.612;13.630;2022-07-12T01:16:00;3.00;;;1.10;;
13366;SDS011;6752;52.612;13.630;2022-07-12T01:21:04;4.10;;;1.23;;
13366;SDS011;6752;52.612;13.630;2022-07-12T01:26:06;4.10;;;1.10;;
13366;SDS011;6752;52.612;13.630;2022-07-12T01:31:08;4.07;;;1.52;;
13366;SDS011;6752;52.612;13.630;2022-07-12T01:36:11;3.28;;;1.25;;
13366;SDS011;6752;52.612;13.630;2022-07-12T01:41:13;4.63;;;1.50;;
13366;SDS011;6752;52.612;13.630;2022-07-12T01:46:16;4.50;;;1.20;;
13366;SDS011;6752;52.612;13.630;2022-07-12T01:51:18;4.72;;;1.42;;
13366;SDS011;6752;52.612;13.630;2022-07-12T01:56:20;2.78;;;1.55;;
13366;SDS011;6752;52.612;13.630;2022-07-12T02:01:23;4.97;;;1.50;;
13366;SDS011;6752;52.612;13.630;2022-07-12T02:06:25;4.67;;;1.50;;
13366;SDS011;6752;52.612;13.630;2022-07-12T02:11:28;5.00;;;1.75;;
13366;SDS011;6752;52.612;13.630;2022-07-12T02:16:31;4.80;;;1.45;;
13366;SDS011;6752;52.612;13.630;2022-07-12T02:21:34;4.00;;;1.87;;
13366;SDS011;6752;52.612;13.630;2022-07-12T02:31:41;3.80;;;1.75;;
13366;SDS011;6752;52.612;13.630;2022-07-12T02:36:44;4.33;;;1.60;;
13366;SDS011;6752;52.612;13.630;2022-07-12T02:41:47;2.65;;;1.42;;
13366;SDS011;6752;52.612;13.630;2022-07-12T02:51:51;5.30;;;1.60;;
13366;SDS011;6752;52.612;13.630;2022-07-12T02:56:54;5.43;;;2.22;;
13366;SDS011;6752;52.612;13.630;2022-07-12T03:01:56;4.18;;;2.08;;
13366;SDS011;6752;52.612;13.630;2022-07-12T03:07:04;3.67;;;2.30;;
13366;SDS011;6752;52.612;13.630;2022-07-12T03:12:06;5.33;;;2.20;;
13366;SDS011;6752;52.612;13.630;2022-07-12T03:17:12;6.95;;;2.30;;
13366;SDS011;6752;52.612;13.630;2022-07-12T03:27:17;6.72;;;2.30;;
13366;SDS011;6752;52.612;13.630;2022-07-12T03:32:19;3.72;;;2.12;;
13366;SDS011;6752;52.612;13.630;2022-07-12T03:37:22;6.97;;;2.70;;
13366;SDS011;6752;52.612;13.630;2022-07-12T03:42:24;5.35;;;2.97;;
13366;SDS011;6752;52.612;13.630;2022-07-12T03:47:27;5.00;;;2.87;;
13366;SDS011;6752;52.612;13.630;2022-07-12T03:52:29;6.37;;;3.37;;
13366;SDS011;6752;52.612;13.630;2022-07-12T03:57:31;7.15;;;3.00;;
13366;SDS011;6752;52.612;13.630;2022-07-12T04:02:34;7.45;;;3.08;;
13366;SDS011;6752;52.612;13.630;2022-07-12T04:07:36;8.82;;;3.65;;
13366;SDS011;6752;52.612;13.630;2022-07-12T04:12:39;6.45;;;3.10;;
13366;SDS011;6752;52.612;13.630;2022-07-12T04:22:44;6.72;;;3.05;;
13366;SDS011;6752;52.612;13.630;2022-07-12T04:27:53;5.75;;;2.47;;
13366;SDS011;6752;52.612;13.630;2022-07-12T04:32:50;7.15;;;2.12;;
13366;SDS011;6752;52.612;13.630;2022-07-12T04:38:07;8.73;;;2.60;;
13366;SDS011;6752;52.612;13.630;2022-07-12T04:43:09;5.62;;;2.08;;
13366;SDS011;6752;52.612;13.630;2022-07-12T04:48:12;5.85;;;2.35;;
13366;SDS011;6752;52.612;13.630;2022-07-12T04:53:15;7.18;;;1.85;;
13366;SDS011;6752;52.612;13.630;2022-07-12T04:58:17;5.15;;;1.98;;
13366;SDS011;6752;52.612;13.630;2022-07-12T05:03:20;5.75;;;2.10;;
13366;SDS011;6752;52.612;13.630;2022-07-12T05:08:22;3.72;;;1.33;;
13366;SDS011;6752;52.612;13.630;2022-07-12T05:13:25;6.53;;;2.00;;
13366;SDS011;6752;52.612;13.630;2022-07-12T05:18:27;7.30;;;1.60;;
13366;SDS011;6752;52.612;13.630;2022-07-12T05:23:30;6.00;;;1.27;;
13366;SDS011;6752;52.612;13.630;2022-07-12T05:28:32;5.35;;;1.37;;
13366;SDS011;6752;52.612;13.630;2022-07-12T05:33:35;6.10;;;1.40;;
13366;SDS011;6752;52.612;13.630;2022-07-12T05:38:37;3.37;;;1.00;;
13366;SDS011;6752;52.612;13.630;2022-07-12T05:43:40;3.12;;;0.95;;
13366;SDS011;6752;52.612;13.630;2022-07-12T05:58:48;6.62;;;1.30;;
13366;SDS011;6752;52.612;13.630;2022-07-12T06:03:52;3.00;;;0.82;;
13366;SDS011;6752;52.612;13.630;2022-07-12T06:08:55;3.37;;;0.90;;
13366;SDS011;6752;52.612;13.630;2022-07-12T06:13:57;3.12;;;0.77;;
13366;SDS011;6752;52.612;13.630;2022-07-12T06:18:59;5.12;;;0.80;;
13366;SDS011;6752;52.612;13.630;2022-07-12T06:24:02;1.67;;;0.60;;
13366;SDS011;6752;52.612;13.630;2022-07-12T06:29:05;4.05;;;0.50;;
13366;SDS011;6752;52.612;13.630;2022-07-12T06:34:08;5.07;;;0.75;;
13366;SDS011;6752;52.612;13.630;2022-07-12T06:39:15;2.67;;;0.80;;
13366;SDS011;6752;52.612;13.630;2022-07-12T06:44:18;4.78;;;0.62;;
13366;SDS011;6752;52.612;13.630;2022-07-12T06:59:24;3.80;;;0.47;;
13366;SDS011;6752;52.612;13.630;2022-07-12T07:04:26;2.15;;;0.57;;
13366;SDS011;6752;52.612;13.630;2022-07-12T07:09:32;3.00;;;0.62;;
13366;SDS011;6752;52.612;13.630;2022-07-12T07:14:35;3.15;;;0.50;;
13366;SDS011;6752;52.612;13.630;2022-07-12T07:19:37;5.53;;;0.60;;
13366;SDS011;6752;52.612;13.630;2022-07-12T07:24:40;4.00;;;0.57;;
13366;SDS011;6752;52.612;13.630;2022-07-12T07:29:43;3.50;;;0.50;;
13366;SDS011;6752;52.612;13.630;2022-07-12T07:35:03;3.35;;;0.47;;
13366;SDS011;6752;52.612;13.630;2022-07-12T07:40:06;1.23;;;0.30;;
13366;SDS011;6752;52.612;13.630;2022-07-12T07:45:08;3.37;;;0.43;;
13366;SDS011;6752;52.612;13.630;2022-07-12T07:50:10;4.20;;;0.60;;
13366;SDS011;6752;52.612;13.630;2022-07-12T08:00:15;3.10;;;0.43;;
13366;SDS011;6752;52.612;13.630;2022-07-12T08:05:17;2.28;;;0.40;;
13366;SDS011;6752;52.612;13.630;2022-07-12T08:10:20;4.10;;;0.50;;
13366;SDS011;6752;52.612;13.630;2022-07-12T08:20:27;2.58;;;0.40;;
13366;SDS011;6752;52.612;13.630;2022-07-12T08:25:29;5.85;;;0.40;;
13366;SDS011;6752;52.612;13.630;2022-07-12T08:30:32;2.83;;;0.40;;
13366;SDS011;6752;52.612;13.630;2022-07-12T08:35:34;6.07;;;0.77;;
13366;SDS011;6752;52.612;13.630;2022-07-12T08:40:37;2.78;;;0.50;;
13366;SDS011;6752;52.612;13.630;2022-07-12T08:45:39;2.20;;;0.40;;
13366;SDS011;6752;52.612;13.630;2022-07-12T08:50:48;3.30;;;0.30;;
13366;SDS011;6752;52.612;13.630;2022-07-12T08:55:46;2.97;;;0.32;;
13366;SDS011;6752;52.612;13.630;2022-07-12T09:00:49;2.58;;;0.57;;
13366;SDS011;6752;52.612;13.630;2022-07-12T09:05:52;5.12;;;0.60;;
13366;SDS011;6752;52.612;13.630;2022-07-12T09:11:04;3.37;;;0.30;;
13366;SDS011;6752;52.612;13.630;2022-07-12T09:16:12;1.95;;;0.30;;
13366;SDS011;6752;52.612;13.630;2022-07-12T09:21:25;2.42;;;0.40;;
13366;SDS011;6752;52.612;13.630;2022-07-12T09:26:30;3.35;;;0.30;;
13366;SDS011;6752;52.612;13.630;2022-07-12T09:31:38;1.30;;;0.22;;
13366;SDS011;6752;52.612;13.630;2022-07-12T09:37:07;4.45;;;0.62;;
13366;SDS011;6752;52.612;13.630;2022-07-12T09:42:10;1.40;;;0.30;;
13366;SDS011;6752;52.612;13.630;2022-07-12T09:47:13;4.90;;;0.50;;
13366;SDS011;6752;52.612;13.630;2022-07-12T09:52:21;3.73;;;0.47;;
13366;SDS011;6752;52.612;13.630;2022-07-12T09:57:27;2.72;;;0.43;;
13366;SDS011;6752;52.612;13.630;2022-07-12T10:02:34;3.30;;;0.40;;
13366;SDS011;6752;52.612;13.630;2022-07-12T10:07:37;2.95;;;0.62;;
13366;SDS011;6752;52.612;13.630;2022-07-12T10:12:39;5.72;;;0.55;;
13366;SDS011;6752;52.612;13.630;2022-07-12T10:17:53;1.73;;;0.40;;
13366;SDS011;6752;52.612;13.630;2022-07-12T10:28:19;1.98;;;0.35;;
13366;SDS011;6752;52.612;13.630;2022-07-12T10:33:22;4.35;;;0.40;;
13366;SDS011;6752;52.612;13.630;2022-07-12T10:38:24;1.60;;;0.30;;
13366;SDS011;6752;52.612;13.630;2022-07-12T10:43:27;1.48;;;0.30;;
13366;SDS011;6752;52.612;13.630;2022-07-12T10:48:47;3.75;;;0.30;;
13366;SDS011;6752;52.612;13.630;2022-07-12T10:53:49;1.90;;;0.60;;
13366;SDS011;6752;52.612;13.630;2022-07-12T10:58:52;2.33;;;0.30;;
13366;SDS011;6752;52.612;13.630;2022-07-12T11:03:55;2.80;;;0.40;;
13366;SDS011;6752;52.612;13.630;2022-07-12T11:09:00;2.55;;;0.30;;
13366;SDS011;6752;52.612;13.630;2022-07-12T11:14:02;3.40;;;0.30;;
13366;SDS011;6752;52.612;13.630;2022-07-12T11:19:06;2.80;;;0.30;;
13366;SDS011;6752;52.612;13.630;2022-07-12T11:24:16;1.92;;;0.40;;
13366;SDS011;6752;52.612;13.630;2022-07-12T11:29:18;3.05;;;0.20;;
13366;SDS011;6752;52.612;13.630;2022-07-12T11:34:24;2.70;;;0.60;;
13366;SDS011;6752;52.612;13.630;2022-07-12T11:44:50;5.18;;;0.60;;
13366;SDS011;6752;52.612;13.630;2022-07-12T11:49:53;5.43;;;0.60;;
13366;SDS011;6752;52.612;13.630;2022-07-12T11:54:55;2.62;;;0.30;;
13366;SDS011;6752;52.612;13.630;2022-07-12T11:59:57;2.10;;;0.30;;
13366;SDS011;6752;52.612;13.630;2022-07-12T12:04:59;3.03;;;0.60;;
13366;SDS011;6752;52.612;13.630;2022-07-12T12:10:05;2.17;;;0.40;;
13366;SDS011;6752;52.612;13.630;2022-07-12T12:15:08;5.25;;;1.10;;
13366;SDS011;6752;52.612;13.630;2022-07-12T12:20:13;5.22;;;0.30;;
13366;SDS011;6752;52.612;13.630;2022-07-12T12:25:15;1.05;;;0.20;;
13366;SDS011;6752;52.612;13.630;2022-07-12T12:30:17;3.03;;;0.40;;
13366;SDS011;6752;52.612;13.630;2022-07-12T12:35:21;4.93;;;0.70;;
13366;SDS011;6752;52.612;13.630;2022-07-12T12:40:26;4.00;;;0.57;;
13366;SDS011;6752;52.612;13.630;2022-07-12T12:45:27;3.80;;;0.40;;
13366;SDS011;6752;52.612;13.630;2022-07-12T12:55:45;2.40;;;0.40;;
13366;SDS011;6752;52.612;13.630;2022-07-12T13:00:48;5.45;;;0.45;;
13366;SDS011;6752;52.612;13.630;2022-07-12T13:05:49;4.53;;;0.47;;
13366;SDS011;6752;52.612;13.630;2022-07-12T13:10:51;2.60;;;0.47;;
13366;SDS011;6752;52.612;13.630;2022-07-12T13:16:12;4.78;;;0.70;;
13366;SDS011;6752;52.612;13.630;2022-07-12T13:21:15;4.32;;;0.45;;
13366;SDS011;6752;52.612;13.630;2022-07-12T13:26:17;3.92;;;0.50;;
13366;SDS011;6752;52.612;13.630;2022-07-12T13:31:19;2.25;;;0.28;;
13366;SDS011;6752;52.612;13.630;2022-07-12T13:36:22;9.43;;;0.68;;
13366;SDS011;6752;52.612;13.630;2022-07-12T13:41:24;3.70;;;0.28;;
13366;SDS011;6752;52.612;13.630;2022-07-12T13:46:26;3.17;;;0.30;;
13366;SDS011;6752;52.612;13.630;2022-07-12T13:51:31;2.45;;;0.40;;
13366;SDS011;6752;52.612;13.630;2022-07-12T13:56:36;4.87;;;0.52;;
13366;SDS011;6752;52.612;13.630;2022-07-12T14:01:38;4.30;;;0.80;;
13366;SDS011;6752;52.612;13.630;2022-07-12T14:11:43;3.33;;;0.43;;
13366;SDS011;6752;52.612;13.630;2022-07-12T14:16:45;24.33;;;2.03;;
13366;SDS011;6752;52.612;13.630;2022-07-12T14:21:47;2.17;;;0.50;;
13366;SDS011;6752;52.612;13.630;2022-07-12T14:26:50;3.00;;;0.40;;
13366;SDS011;6752;52.612;13.630;2022-07-12T14:31:52;1.85;;;0.20;;
13366;SDS011;6752;52.612;13.630;2022-07-12T14:36:55;8.80;;;0.95;;
13366;SDS011;6752;52.612;13.630;2022-07-12T14:41:57;4.43;;;0.32;;
13366;SDS011;6752;52.612;13.630;2022-07-12T14:47:00;2.37;;;0.40;;
13366;SDS011;6752;52.612;13.630;2022-07-12T14:52:03;1.58;;;0.40;;
13366;SDS011;6752;52.612;13.630;2022-07-12T14:57:05;2.87;;;0.40;;
13366;SDS011;6752;52.612;13.630;2022-07-12T15:02:07;1.58;;;0.25;;
13366;SDS011;6752;52.612;13.630;2022-07-12T15:07:10;3.95;;;0.50;;
13366;SDS011;6752;52.612;13.630;2022-07-12T15:12:12;3.10;;;0.40;;
13366;SDS011;6752;52.612;13.630;2022-07-12T15:17:14;3.90;;;0.43;;
13366;SDS011;6752;52.612;13.630;2022-07-12T15:22:18;1.40;;;0.40;;
13366;SDS011;6752;52.612;13.630;2022-07-12T15:27:20;1.45;;;0.40;;
13366;SDS011;6752;52.612;13.630;2022-07-12T15:32:26;3.33;;;0.57;;
13366;SDS011;6752;52.612;13.630;2022-07-12T15:37:28;3.37;;;0.30;;
13366;SDS011;6752;52.612;13.630;2022-07-12T15:42:31;4.93;;;0.40;;
13366;SDS011;6752;52.612;13.630;2022-07-12T15:47:33;3.58;;;0.37;;
13366;SDS011;6752;52.612;13.630;2022-07-12T15:52:37;3.35;;;0.30;;
13366;SDS011;6752;52.612;13.630;2022-07-12T15:58:02;4.55;;;0.50;;
13366;SDS011;6752;52.612;13.630;2022-07-12T16:03:05;2.35;;;0.40;;
13366;SDS011;6752;52.612;13.630;2022-07-12T16:08:07;2.40;;;0.40;;
13366;SDS011;6752;52.612;13.630;2022-07-12T16:13:11;4.78;;;0.43;;
13366;SDS011;6752;52.612;13.630;2022-07-12T16:18:13;1.17;;;0.30;;
13366;SDS011;6752;52.612;13.630;2022-07-12T16:23:22;3.67;;;0.50;;
13366;SDS011;6752;52.612;13.630;2022-07-12T16:28:24;1.97;;;0.40;;
13366;SDS011;6752;52.612;13.630;2022-07-12T16:33:27;2.40;;;0.60;;
13366;SDS011;6752;52.612;13.630;2022-07-12T16:38:30;3.22;;;0.50;;
13366;SDS011;6752;52.612;13.630;2022-07-12T16:43:32;1.80;;;0.40;;
13366;SDS011;6752;52.612;13.630;2022-07-12T16:48:34;2.42;;;0.40;;
13366;SDS011;6752;52.612;13.630;2022-07-12T16:53:40;1.95;;;0.40;;
13366;SDS011;6752;52.612;13.630;2022-07-12T16:58:42;6.18;;;0.50;;
13366;SDS011;6752;52.612;13.630;2022-07-12T17:03:45;3.30;;;0.50;;
13366;SDS011;6752;52.612;13.630;2022-07-12T17:08:47;2.40;;;0.60;;
13366;SDS011;6752;52.612;13.630;2022-07-12T17:13:49;5.03;;;0.57;;
13366;SDS011;6752;52.612;13.630;2022-07-12T17:18:52;3.08;;;0.80;;
13366;SDS011;6752;52.612;13.630;2022-07-12T17:23:54;3.80;;;0.80;;
13366;SDS011;6752;52.612;13.630;2022-07-12T17:28:57;3.35;;;0.40;;
13366;SDS011;6752;52.612;13.630;2022-07-12T17:34:00;2.10;;;0.50;;
13366;SDS011;6752;52.612;13.630;2022-07-12T17:39:02;3.45;;;0.60;;
13366;SDS011;6752;52.612;13.630;2022-07-12T17:44:04;2.53;;;0.55;;
13366;SDS011;6752;52.612;13.630;2022-07-12T17:49:07;4.30;;;0.82;;
13366;SDS011;6752;52.612;13.630;2022-07-12T17:54:09;2.50;;;0.50;;
13366;SDS011;6752;52.612;13.630;2022-07-12T17:59:12;6.12;;;0.90;;
13366;SDS011;6752;52.612;13.630;2022-07-12T18:04:16;2.60;;;0.68;;
13366;SDS011;6752;52.612;13.630;2022-07-12T18:09:18;2.67;;;0.50;;
13366;SDS011;6752;52.612;13.630;2022-07-12T18:14:25;2.12;;;0.57;;
13366;SDS011;6752;52.612;13.630;2022-07-12T18:19:45;2.40;;;0.52;;
13366;SDS011;6752;52.612;13.630;2022-07-12T18:24:48;10.65;;;0.77;;
13366;SDS011;6752;52.612;13.630;2022-07-12T18:29:50;5.35;;;0.85;;
13366;SDS011;6752;52.612;13.630;2022-07-12T18:34:52;1.55;;;0.40;;
13366;SDS011;6752;52.612;13.630;2022-07-12T18:39:55;4.45;;;0.50;;
13366;SDS011;6752;52.612;13.630;2022-07-12T18:44:59;2.28;;;0.50;;
13366;SDS011;6752;52.612;13.630;2022-07-12T18:50:02;5.15;;;0.60;;
13366;SDS011;6752;52.612;13.630;2022-07-12T18:55:10;2.80;;;0.83;;
13366;SDS011;6752;52.612;13.630;2022-07-12T19:00:12;3.97;;;0.60;;
13366;SDS011;6752;52.612;13.630;2022-07-12T19:05:15;1.42;;;0.50;;
13366;SDS011;6752;52.612;13.630;2022-07-12T19:10:20;3.08;;;0.70;;
13366;SDS011;6752;52.612;13.630;2022-07-12T19:15:23;2.35;;;0.60;;
13366;SDS011;6752;52.612;13.630;2022-07-12T19:20:25;2.53;;;0.70;;
13366;SDS011;6752;52.612;13.630;2022-07-12T19:25:28;2.87;;;0.60;;
13366;SDS011;6752;52.612;13.630;2022-07-12T19:30:30;3.37;;;0.60;;
13366;SDS011;6752;52.612;13.630;2022-07-12T19:35:32;4.55;;;0.60;;
13366;SDS011;6752;52.612;13.630;2022-07-12T19:40:35;2.35;;;0.50;;
13366;SDS011;6752;52.612;13.630;2022-07-12T19:45:38;1.52;;;0.60;;
13366;SDS011;6752;52.612;13.630;2022-07-12T19:50:40;1.87;;;0.57;;
13366;SDS011;6752;52.612;13.630;2022-07-12T19:55:43;2.05;;;0.65;;
13366;SDS011;6752;52.612;13.630;2022-07-12T20:00:45;2.67;;;0.68;;
13366;SDS011;6752;52.612;13.630;2022-07-12T20:05:47;1.50;;;0.50;;
13366;SDS011;6752;52.612;13.630;2022-07-12T20:10:53;3.35;;;0.93;;
13366;SDS011;6752;52.612;13.630;2022-07-12T20:15:56;4.65;;;0.73;;
13366;SDS011;6752;52.612;13.630;2022-07-12T20:20:58;2.08;;;0.82;;
13366;SDS011;6752;52.612;13.630;2022-07-12T20:26:00;2.78;;;0.70;;
13366;SDS011;6752;52.612;13.630;2022-07-12T20:36:05;2.30;;;1.00;;
13366;SDS011;6752;52.612;13.630;2022-07-12T20:41:07;2.33;;;0.90;;
13366;SDS011;6752;52.612;13.630;2022-07-12T20:46:10;2.25;;;1.05;;
13366;SDS011;6752;52.612;13.630;2022-07-12T20:51:12;3.20;;;0.90;;
13366;SDS011;6752;52.612;13.630;2022-07-12T20:56:14;2.65;;;0.85;;
13366;SDS011;6752;52.612;13.630;2022-07-12T21:01:17;4.22;;;0.98;;
13366;SDS011;6752;52.612;13.630;2022-07-12T21:06:22;2.67;;;0.88;;
13366;SDS011;6752;52.612;13.630;2022-07-12T21:11:25;3.22;;;0.73;;
13366;SDS011;6752;52.612;13.630;2022-07-12T21:16:27;3.45;;;0.80;;
13366;SDS011;6752;52.612;13.630;2022-07-12T21:21:30;2.58;;;0.90;;
13366;SDS011;6752;52.612;13.630;2022-07-12T21:26:32;1.98;;;0.80;;
13366;SDS011;6752;52.612;13.630;2022-07-12T21:36:36;2.30;;;0.90;;
13366;SDS011;6752;52.612;13.630;2022-07-12T21:41:39;2.20;;;0.90;;
13366;SDS011;6752;52.612;13.630;2022-07-12T21:46:41;2.25;;;0.80;;
13366;SDS011;6752;52.612;13.630;2022-07-12T21:51:44;2.53;;;0.75;;
13366;SDS011;6752;52.612;13.630;2022-07-12T22:01:48;3.92;;;0.70;;
13366;SDS011;6752;52.612;13.630;2022-07-12T22:06:50;1.77;;;0.82;;
13366;SDS011;6752;52.612;13.630;2022-07-12T22:11:53;3.42;;;1.05;;
13366;SDS011;6752;52.612;13.630;2022-07-12T22:26:59;2.42;;;0.90;;
13366;SDS011;6752;52.612;13.630;2022-07-12T22:32:01;1.90;;;0.80;;
13366;SDS011;6752;52.612;13.630;2022-07-12T22:37:04;5.50;;;1.23;;
13366;SDS011;6752;52.612;13.630;2022-07-12T22:42:06;3.78;;;1.00;;
13366;SDS011;6752;52.612;13.630;2022-07-12T22:47:09;2.53;;;0.90;;
13366;SDS011;6752;52.612;13.630;2022-07-12T22:52:11;2.42;;;0.90;;
13366;SDS011;6752;52.612;13.630;2022-07-12T23:02:15;2.28;;;1.12;;
13366;SDS011;6752;52.612;13.630;2022-07-12T23:07:18;2.40;;;0.90;;
13366;SDS011;6752;52.612;13.630;2022-07-12T23:12:20;3.00;;;0.90;;
13366;SDS011;6752;52.612;13.630;2022-07-12T23:17:23;2.53;;;1.20;;
13366;SDS011;6752;52.612;13.630;2022-07-12T23:22:25;2.12;;;1.00;;
13366;SDS011;6752;52.612;13.630;2022-07-12T23:27:27;4.05;;;0.90;;
13366;SDS011;6752;52.612;13.630;2022-07-12T23:32:30;2.53;;;0.90;;
13366;SDS011;6752;52.612;13.630;2022-07-12T23:37:32;2.97;;;1.02;;
13366;SDS011;6752;52.612;13.630;2022-07-12T23:42:35;2.58;;;0.98;;
13366;SDS011;6752;52.612;13.630;2022-07-12T23:47:37;3.15;;;0.90;;
13366;SDS011;6752;52.612;13.630;2022-07-12T23:52:39;3.50;;;1.27;;
13366;SDS011;6752;52.612;13.630;2022-07-12T23:57:42;3.40;;;1.20;;
